Time;durP1;ratioP1;P1;durP2;ratioP2;P2;SDS_P1;SDS_P2;PMS_P1;PMS_P2;Temp;Humidity;BMP_temperature;BMP_pressure;BME280_temperature;BME280_humidity;BME280_pressure;Samples;Min_cycle;Max_cycle;Signal;HPM_P1;HPM_P2
2021/05/09 00:01:43;;;;;;;32.47;28.67;;;;;;;;;;5033732;28;20160;-67
2021/05/09 00:04:09;;;;;;;31.25;27.10;;;;;;;;;;5033670;28;20136;-67
2021/05/09 00:06:36;;;;;;;30.90;27.70;;;;;;;;;;5033497;28;20026;-67
2021/05/09 00:09:02;;;;;;;32.03;28.60;;;;;;;;;;5033576;28;20474;-67
2021/05/09 00:11:28;;;;;;;36.85;28.42;;;;;;;;;;5034303;28;20032;-67
2021/05/09 00:13:54;;;;;;;30.02;26.83;;;;;;;;;;5034231;28;20026;-67
2021/05/09 00:16:20;;;;;;;30.65;26.85;;;;;;;;;;5033460;28;20538;-67
2021/05/09 00:18:46;;;;;;;30.10;26.92;;;;;;;;;;5033482;28;20038;-68
2021/05/09 00:21:12;;;;;;;29.20;26.20;;;;;;;;;;5033589;28;20021;-67
2021/05/09 00:23:38;;;;;;;31.27;27.83;;;;;;;;;;5033661;28;20489;-68
2021/05/09 00:26:04;;;;;;;30.75;26.13;;;;;;;;;;5033580;28;20375;-67
2021/05/09 00:28:30;;;;;;;29.30;26.17;;;;;;;;;;5033510;28;20491;-67
2021/05/09 00:30:56;;;;;;;27.50;23.77;;;;;;;;;;5033163;28;20428;-67
2021/05/09 00:33:22;;;;;;;28.23;25.33;;;;;;;;;;5033525;28;20028;-67
2021/05/09 00:35:49;;;;;;;29.40;26.25;;;;;;;;;;5033374;28;20079;-68
2021/05/09 00:38:15;;;;;;;28.58;24.85;;;;;;;;;;5039525;28;20466;-68
2021/05/09 00:40:41;;;;;;;31.08;23.60;;;;;;;;;;5053231;28;20382;-67
2021/05/09 00:43:07;;;;;;;27.20;23.02;;;;;;;;;;5053621;28;20110;-67
2021/05/09 00:45:33;;;;;;;26.75;22.33;;;;;;;;;;5053187;28;20025;-66
2021/05/09 00:47:59;;;;;;;28.67;23.88;;;;;;;;;;5052621;28;20441;-68
2021/05/09 00:50:25;;;;;;;24.77;22.15;;;;;;;;;;5052657;28;20109;-69
2021/05/09 00:52:51;;;;;;;27.63;23.63;;;;;;;;;;5052994;28;20029;-67
2021/05/09 00:55:18;;;;;;;30.80;26.35;;;;;;;;;;5052480;28;20029;-66
2021/05/09 00:57:44;;;;;;;27.58;22.35;;;;;;;;;;5052956;28;20021;-67
2021/05/09 01:00:11;;;;;;;25.70;23.00;;;;;;;;;;5053270;28;20033;-68
2021/05/09 01:02:37;;;;;;;25.60;23.02;;;;;;;;;;5053058;28;20056;-66
2021/05/09 01:05:04;;;;;;;28.67;22.05;;;;;;;;;;5053231;28;20471;-66
2021/05/09 01:07:30;;;;;;;30.58;23.08;;;;;;;;;;5056744;28;20434;-66
2021/05/09 01:09:56;;;;;;;25.90;20.50;;;;;;;;;;5057206;28;20044;-65
2021/05/09 01:12:22;;;;;;;28.70;21.55;;;;;;;;;;5056910;28;20025;-65
2021/05/09 01:14:48;;;;;;;24.63;21.67;;;;;;;;;;5056233;28;20071;-66
2021/05/09 01:17:14;;;;;;;28.05;24.55;;;;;;;;;;5055602;28;20029;-66
2021/05/09 01:19:40;;;;;;;26.45;23.63;;;;;;;;;;5054789;28;20117;-66
2021/05/09 01:22:06;;;;;;;24.92;21.90;;;;;;;;;;5056824;28;20067;-65
2021/05/09 01:24:33;;;;;;;29.23;22.45;;;;;;;;;;5056704;28;20057;-65
2021/05/09 01:26:59;;;;;;;27.27;22.98;;;;;;;;;;5056207;28;20079;-66
2021/05/09 01:29:25;;;;;;;25.95;20.48;;;;;;;;;;5056903;28;20100;-65
2021/05/09 01:31:51;;;;;;;25.08;22.45;;;;;;;;;;5056681;28;20036;-66
2021/05/09 01:34:17;;;;;;;24.55;21.92;;;;;;;;;;5056462;28;20025;-66
2021/05/09 01:36:43;;;;;;;26.90;22.95;;;;;;;;;;5056353;28;20033;-66
2021/05/09 01:39:09;;;;;;;23.63;21.17;;;;;;;;;;5056660;28;20033;-65
2021/05/09 01:41:35;;;;;;;26.20;22.63;;;;;;;;;;5056517;28;20413;-65
2021/05/09 01:44:01;;;;;;;26.00;23.50;;;;;;;;;;5056387;28;20021;-65
2021/05/09 01:46:28;;;;;;;24.50;22.08;;;;;;;;;;5056197;28;20020;-65
2021/05/09 01:48:54;;;;;;;24.58;22.00;;;;;;;;;;5055949;28;20410;-65
2021/05/09 01:51:20;;;;;;;28.80;22.85;;;;;;;;;;5056325;28;20033;-65
2021/05/09 01:53:47;;;;;;;22.58;20.17;;;;;;;;;;5056255;28;20025;-65
2021/05/09 01:56:14;;;;;;;23.63;21.17;;;;;;;;;;5056207;28;20036;-65
2021/05/09 01:58:40;;;;;;;23.80;21.30;;;;;;;;;;5055977;28;20083;-65
2021/05/09 02:01:06;;;;;;;22.27;19.73;;;;;;;;;;5056223;28;20029;-65
2021/05/09 02:03:32;;;;;;;23.48;20.83;;;;;;;;;;5056085;28;20021;-67
2021/05/09 02:05:58;;;;;;;23.23;20.83;;;;;;;;;;5055988;28;20025;-65
2021/05/09 02:08:25;;;;;;;49.13;20.77;;;;;;;;;;5056052;28;20047;-66
2021/05/09 02:10:51;;;;;;;23.60;21.17;;;;;;;;;;5055681;28;20017;-66
2021/05/09 02:13:17;;;;;;;24.17;21.63;;;;;;;;;;5056045;28;20025;-65
2021/05/09 02:15:43;;;;;;;27.08;21.67;;;;;;;;;;5055627;28;20029;-65
2021/05/09 02:18:09;;;;;;;24.75;22.13;;;;;;;;;;5054783;28;20125;-66
2021/05/09 02:20:35;;;;;;;22.10;19.45;;;;;;;;;;5055798;28;20122;-65
2021/05/09 02:23:01;;;;;;;27.98;18.65;;;;;;;;;;5055494;28;20032;-65
2021/05/09 02:25:27;;;;;;;23.52;20.60;;;;;;;;;;5056147;28;20108;-65
2021/05/09 02:27:54;;;;;;;22.35;19.95;;;;;;;;;;5055719;28;20104;-65
2021/05/09 02:30:20;;;;;;;22.30;19.90;;;;;;;;;;5055403;28;20090;-66
2021/05/09 02:32:46;;;;;;;24.63;19.50;;;;;;;;;;5054914;28;20025;-65
2021/05/09 02:35:12;;;;;;;23.02;18.92;;;;;;;;;;5055523;28;20348;-65
2021/05/09 02:37:38;;;;;;;22.95;20.48;;;;;;;;;;5055510;28;20023;-65
2021/05/09 02:40:06;;;;;;;21.00;18.77;;;;;;;;;;5055435;28;20471;-65
2021/05/09 02:42:32;;;;;;;20.48;18.35;;;;;;;;;;5055377;28;20017;-65
2021/05/09 02:44:58;;;;;;;23.92;20.40;;;;;;;;;;5055037;28;20021;-66
2021/05/09 02:47:32;;;;;;;20.90;18.80;;;;;;;;;;5054995;28;20025;-66
2021/05/09 02:49:58;;;;;;;21.52;19.27;;;;;;;;;;5055355;28;20021;-65
2021/05/09 02:52:24;;;;;;;20.58;17.40;;;;;;;;;;5054976;28;20367;-65
2021/05/09 02:54:50;;;;;;;21.08;18.55;;;;;;;;;;5054839;28;20170;-66
2021/05/09 02:57:17;;;;;;;21.27;19.13;;;;;;;;;;5055160;28;20033;-65
2021/05/09 02:59:43;;;;;;;22.23;19.92;;;;;;;;;;5055195;28;20124;-66
2021/05/09 03:02:09;;;;;;;23.20;19.95;;;;;;;;;;5054682;28;20025;-66
2021/05/09 03:04:35;;;;;;;17.73;15.98;;;;;;;;;;5055064;28;20158;-65
2021/05/09 03:07:01;;;;;;;20.75;18.35;;;;;;;;;;5054714;28;20502;-65
2021/05/09 03:09:27;;;;;;;18.80;16.80;;;;;;;;;;5055354;28;20374;-65
2021/05/09 03:11:53;;;;;;;19.45;17.27;;;;;;;;;;5054884;28;20051;-65
2021/05/09 03:14:19;;;;;;;21.20;19.02;;;;;;;;;;5054562;28;20031;-65
2021/05/09 03:16:45;;;;;;;20.83;18.67;;;;;;;;;;5054047;28;20542;-66
2021/05/09 03:19:11;;;;;;;20.38;18.35;;;;;;;;;;5054858;28;20359;-65
2021/05/09 03:21:40;;;;;;;20.58;17.50;;;;;;;;;;5054629;28;20419;-65
2021/05/09 03:24:07;;;;;;;19.80;17.70;;;;;;;;;;5054434;28;20074;-65
2021/05/09 03:26:33;;;;;;;28.08;18.70;;;;;;;;;;5054583;28;20348;-65
2021/05/09 03:28:59;;;;;;;25.15;17.27;;;;;;;;;;5053017;28;20453;-66
2021/05/09 03:31:25;;;;;;;18.38;16.48;;;;;;;;;;5054069;28;20352;-65
2021/05/09 03:33:51;;;;;;;21.98;17.80;;;;;;;;;;5054759;28;20028;-66
2021/05/09 03:36:17;;;;;;;18.05;16.25;;;;;;;;;;5054240;28;20025;-65
2021/05/09 03:38:43;;;;;;;20.02;16.35;;;;;;;;;;5053816;28;20467;-66
2021/05/09 03:41:09;;;;;;;17.92;16.05;;;;;;;;;;5054250;28;20029;-65
2021/05/09 03:43:35;;;;;;;20.80;17.23;;;;;;;;;;5054203;28;20046;-65
2021/05/09 03:46:01;;;;;;;19.58;17.60;;;;;;;;;;5053905;28;20502;-66
2021/05/09 03:48:27;;;;;;;21.15;18.13;;;;;;;;;;5053744;28;20504;-65
2021/05/09 03:50:53;;;;;;;17.60;15.68;;;;;;;;;;5053833;28;20025;-65
2021/05/09 03:53:19;;;;;;;18.70;16.70;;;;;;;;;;5054089;28;20078;-65
2021/05/09 03:55:45;;;;;;;18.00;15.98;;;;;;;;;;5053785;28;20435;-65
2021/05/09 03:58:11;;;;;;;21.75;18.42;;;;;;;;;;5053626;28;20033;-65
2021/05/09 04:00:38;;;;;;;19.35;15.80;;;;;;;;;;5053542;28;20032;-68
2021/05/09 04:03:04;;;;;;;17.25;15.43;;;;;;;;;;5053266;28;20029;-65
2021/05/09 04:05:30;;;;;;;17.67;15.95;;;;;;;;;;5053564;28;20406;-66
2021/05/09 04:07:56;;;;;;;19.65;16.38;;;;;;;;;;5053813;28;20031;-65
2021/05/09 04:10:22;;;;;;;18.05;16.15;;;;;;;;;;5053590;28;20017;-65
2021/05/09 04:12:48;;;;;;;17.42;15.68;;;;;;;;;;5053253;28;20021;-65
2021/05/09 04:15:15;;;;;;;18.45;14.60;;;;;;;;;;5053655;28;20067;-65
2021/05/09 04:17:41;;;;;;;17.73;15.80;;;;;;;;;;5053555;28;20036;-65
2021/05/09 04:20:07;;;;;;;18.30;16.45;;;;;;;;;;5053596;28;20068;-65
2021/05/09 04:22:33;;;;;;;15.80;14.25;;;;;;;;;;5053781;28;20025;-65
2021/05/09 04:24:59;;;;;;;21.00;16.60;;;;;;;;;;5053093;28;20032;-65
2021/05/09 04:27:25;;;;;;;17.02;15.18;;;;;;;;;;5053162;28;20053;-65
2021/05/09 04:29:51;;;;;;;17.70;15.20;;;;;;;;;;5053289;28;20513;-66
2021/05/09 04:32:17;;;;;;;17.17;15.10;;;;;;;;;;5052513;28;20029;-65
2021/05/09 04:34:43;;;;;;;16.65;15.00;;;;;;;;;;5053195;28;20022;-65
2021/05/09 04:37:09;;;;;;;17.23;15.48;;;;;;;;;;5053427;28;20056;-65
2021/05/09 04:39:36;;;;;;;16.52;14.73;;;;;;;;;;5052884;28;20520;-65
2021/05/09 04:42:02;;;;;;;18.98;16.13;;;;;;;;;;5053403;28;20021;-65
2021/05/09 04:44:28;;;;;;;17.65;15.80;;;;;;;;;;5052938;28;20075;-66
2021/05/09 04:46:54;;;;;;;15.70;14.10;;;;;;;;;;5052992;28;20056;-65
2021/05/09 04:49:20;;;;;;;20.00;15.25;;;;;;;;;;5053240;28;20582;-66
2021/05/09 04:51:46;;;;;;;17.50;13.88;;;;;;;;;;5053167;28;20044;-65
2021/05/09 04:54:12;;;;;;;16.50;14.77;;;;;;;;;;5053281;28;20025;-65
2021/05/09 04:56:38;;;;;;;16.40;13.75;;;;;;;;;;5052803;28;20021;-66
2021/05/09 04:59:04;;;;;;;16.50;14.98;;;;;;;;;;5052605;28;20064;-67
2021/05/09 05:01:30;;;;;;;16.00;14.50;;;;;;;;;;5052920;28;20033;-65
2021/05/09 05:03:56;;;;;;;16.77;14.80;;;;;;;;;;5053239;28;20118;-66
2021/05/09 05:06:22;;;;;;;15.70;14.07;;;;;;;;;;5053168;28;20032;-65
2021/05/09 05:08:48;;;;;;;15.55;14.07;;;;;;;;;;5053037;28;20383;-65
2021/05/09 05:11:14;;;;;;;15.18;13.50;;;;;;;;;;5053243;28;20049;-66
2021/05/09 05:13:41;;;;;;;16.63;15.02;;;;;;;;;;5053071;28;20028;-67
2021/05/09 05:16:07;;;;;;;17.02;13.93;;;;;;;;;;5052650;28;20021;-66
2021/05/09 05:18:33;;;;;;;16.35;14.70;;;;;;;;;;5053058;28;20037;-65
2021/05/09 05:21:04;;;;;;;17.05;13.60;;;;;;;;;;5052726;28;20025;-66
2021/05/09 05:23:30;;;;;;;17.02;14.82;;;;;;;;;;5050737;28;20025;-66
2021/05/09 05:25:56;;;;;;;14.75;13.15;;;;;;;;;;5052683;28;20107;-66
2021/05/09 05:28:23;;;;;;;17.10;14.07;;;;;;;;;;5052483;28;20057;-65
2021/05/09 05:30:49;;;;;;;14.77;13.20;;;;;;;;;;5052265;28;20021;-66
2021/05/09 05:33:31;;;;;;;15.80;14.15;;;;;;;;;;5052759;28;20025;-66
2021/05/09 05:35:57;;;;;;;16.40;14.80;;;;;;;;;;5053229;28;20067;-66
2021/05/09 05:38:23;;;;;;;16.48;13.77;;;;;;;;;;5051730;28;20128;-66
2021/05/09 05:40:53;;;;;;;13.85;12.45;;;;;;;;;;5052105;28;20013;-67
2021/05/09 05:43:19;;;;;;;14.38;12.90;;;;;;;;;;5052510;28;20060;-67
2021/05/09 05:45:45;;;;;;;14.48;13.05;;;;;;;;;;5052553;28;20060;-67
2021/05/09 05:48:11;;;;;;;13.57;12.18;;;;;;;;;;5051434;28;20056;-67
2021/05/09 05:50:39;;;;;;;14.63;13.00;;;;;;;;;;5052880;28;20368;-66
2021/05/09 05:53:05;;;;;;;14.25;12.75;;;;;;;;;;5054619;28;20362;-67
2021/05/09 05:55:31;;;;;;;14.30;12.45;;;;;;;;;;5056226;28;20082;-69
2021/05/09 05:57:57;;;;;;;14.43;13.02;;;;;;;;;;5067095;28;20031;-67
2021/05/09 06:00:23;;;;;;;13.15;11.43;;;;;;;;;;5075940;28;20465;-67
2021/05/09 06:02:49;;;;;;;14.10;12.57;;;;;;;;;;5063173;28;20356;-68
2021/05/09 06:05:16;;;;;;;14.75;12.52;;;;;;;;;;5038456;28;20025;-67
2021/05/09 06:07:42;;;;;;;13.35;12.05;;;;;;;;;;5045726;28;20417;-67
2021/05/09 06:10:08;;;;;;;12.85;11.55;;;;;;;;;;5050500;28;20471;-66
2021/05/09 06:12:35;;;;;;;13.32;11.95;;;;;;;;;;5054785;28;20025;-67
2021/05/09 06:15:01;;;;;;;11.52;10.40;;;;;;;;;;5054593;28;20035;-65
2021/05/09 06:17:27;;;;;;;12.82;11.20;;;;;;;;;;5062810;28;20425;-67
2021/05/09 06:19:53;;;;;;;15.35;11.85;;;;;;;;;;5075466;28;20371;-65
2021/05/09 06:22:19;;;;;;;13.23;11.38;;;;;;;;;;5075441;28;20021;-66
2021/05/09 06:24:45;;;;;;;11.75;10.65;;;;;;;;;;5073740;28;20024;-67
2021/05/09 06:27:11;;;;;;;26.75;11.82;;;;;;;;;;5073128;28;20035;-66
2021/05/09 06:29:37;;;;;;;13.60;9.82;;;;;;;;;;5075232;28;20033;-65
2021/05/09 06:32:03;;;;;;;13.80;10.40;;;;;;;;;;5075180;28;20397;-66
2021/05/09 06:34:29;;;;;;;10.75;9.65;;;;;;;;;;5074757;28;20485;-66
2021/05/09 06:36:56;;;;;;;14.43;10.57;;;;;;;;;;5068409;28;20115;-66
2021/05/09 06:39:26;;;;;;;16.02;10.50;;;;;;;;;;5054836;28;20542;-66
2021/05/09 06:41:55;;;;;;;14.13;10.45;;;;;;;;;;5052257;28;20490;-65
2021/05/09 06:44:21;;;;;;;12.35;11.25;;;;;;;;;;5053687;28;20083;-68
2021/05/09 06:46:47;;;;;;;14.65;11.00;;;;;;;;;;5045480;28;20021;-66
2021/05/09 06:49:15;;;;;;;19.02;11.88;;;;;;;;;;5042244;28;20037;-66
2021/05/09 06:51:41;;;;;;;27.65;16.33;;;;;;;;;;5041531;28;20021;-70
2021/05/09 06:54:07;;;;;;;29.55;16.58;;;;;;;;;;5043955;28;20090;-70
2021/05/09 06:56:33;;;;;;;25.63;14.68;;;;;;;;;;5054386;28;20025;-66
2021/05/09 06:58:59;;;;;;;25.60;14.68;;;;;;;;;;5051878;28;20037;-66
2021/05/09 07:01:25;;;;;;;25.83;14.23;;;;;;;;;;5051199;28;20028;-66
2021/05/09 07:03:51;;;;;;;14.80;11.45;;;;;;;;;;5053374;28;20036;-65
2021/05/09 07:06:17;;;;;;;15.23;10.48;;;;;;;;;;5054350;28;20402;-67
2021/05/09 07:08:44;;;;;;;13.52;9.00;;;;;;;;;;5053665;28;20479;-67
2021/05/09 07:11:10;;;;;;;12.77;8.13;;;;;;;;;;5056725;28;20032;-68
2021/05/09 07:13:36;;;;;;;17.33;6.45;;;;;;;;;;5073784;28;20111;-67
2021/05/09 07:16:02;;;;;;;8.32;5.13;;;;;;;;;;5074193;28;20483;-67
2021/05/09 07:18:29;;;;;;;9.65;4.28;;;;;;;;;;5073885;28;20059;-67
2021/05/09 07:20:59;;;;;;;7.40;3.85;;;;;;;;;;5050753;28;20441;-67
2021/05/09 07:23:27;;;;;;;5.05;3.30;;;;;;;;;;5038799;28;20084;-69
2021/05/09 07:25:54;;;;;;;5.20;3.17;;;;;;;;;;5041236;28;20192;-67
2021/05/09 07:28:23;;;;;;;4.68;3.17;;;;;;;;;;5036977;28;20049;-68
2021/05/09 07:31:11;;;;;;;3.42;3.13;;;;;;;;;;5048487;28;20025;-69
2021/05/09 07:33:37;;;;;;;6.30;3.40;;;;;;;;;;5041357;28;20036;-68
2021/05/09 07:36:04;;;;;;;3.40;3.10;;;;;;;;;;5034968;28;20492;-68
2021/05/09 07:38:30;;;;;;;16.20;3.95;;;;;;;;;;5042950;28;20087;-68
2021/05/09 07:40:56;;;;;;;10.35;4.65;;;;;;;;;;5041337;28;20474;-68
2021/05/09 07:43:27;;;;;;;9.90;4.53;;;;;;;;;;5032710;28;20433;-68
2021/05/09 07:45:53;;;;;;;4.43;3.63;;;;;;;;;;5033605;28;20082;-66
2021/05/09 07:48:19;;;;;;;4.88;4.00;;;;;;;;;;5034020;28;20037;-66
2021/05/09 07:50:46;;;;;;;6.45;3.72;;;;;;;;;;5033332;28;20026;-67
2021/05/09 07:53:14;;;;;;;5.85;4.15;;;;;;;;;;5033618;28;20463;-67
2021/05/09 07:55:40;;;;;;;9.50;5.18;;;;;;;;;;5033697;28;20100;-67
2021/05/09 07:58:21;;;;;;;8.13;4.57;;;;;;;;;;5033666;28;20463;-65
2021/05/09 08:00:47;;;;;;;4.55;4.15;;;;;;;;;;5033323;28;20104;-67
2021/05/09 08:03:14;;;;;;;7.53;4.32;;;;;;;;;;5033353;28;20031;-67
2021/05/09 08:05:40;;;;;;;7.40;4.05;;;;;;;;;;5033545;28;20030;-67
2021/05/09 08:08:06;;;;;;;4.47;4.05;;;;;;;;;;5033524;28;20025;-71
2021/05/09 08:10:35;;;;;;;6.78;4.40;;;;;;;;;;5033241;28;20406;-69
2021/05/09 08:13:01;;;;;;;5.28;4.78;;;;;;;;;;5033232;28;20244;-68
2021/05/09 08:15:27;;;;;;;6.95;4.40;;;;;;;;;;5032389;28;20025;-68
2021/05/09 08:17:54;;;;;;;11.45;3.97;;;;;;;;;;5036306;28;20031;-69
2021/05/09 08:20:20;;;;;;;5.15;4.65;;;;;;;;;;5045109;28;20315;-69
2021/05/09 08:22:47;;;;;;;8.35;6.43;;;;;;;;;;5046682;28;20104;-74
2021/05/09 08:25:14;;;;;;;10.15;6.97;;;;;;;;;;5042084;28;20021;-67
2021/05/09 08:27:40;;;;;;;9.15;7.22;;;;;;;;;;5047875;28;20049;-71
2021/05/09 08:30:06;;;;;;;8.30;7.45;;;;;;;;;;5053038;28;20374;-68
2021/05/09 08:32:32;;;;;;;9.10;8.20;;;;;;;;;;5055406;28;20131;-68
2021/05/09 08:34:59;;;;;;;10.02;7.60;;;;;;;;;;5054271;28;20025;-69
2021/05/09 08:37:26;;;;;;;6.78;6.18;;;;;;;;;;5049916;28;20162;-71
2021/05/09 08:39:53;;;;;;;12.60;7.57;;;;;;;;;;5045678;28;20033;-68
2021/05/09 08:42:19;;;;;;;9.70;8.38;;;;;;;;;;5042279;28;20105;-65
2021/05/09 08:44:45;;;;;;;10.23;7.95;;;;;;;;;;5041374;28;20187;-69
2021/05/09 08:47:12;;;;;;;15.32;9.77;;;;;;;;;;5043941;28;20022;-69
2021/05/09 08:49:39;;;;;;;10.40;7.80;;;;;;;;;;5043292;28;20028;-69
2021/05/09 08:52:05;;;;;;;18.42;11.05;;;;;;;;;;5044203;28;20021;-69
2021/05/09 08:54:31;;;;;;;12.75;11.50;;;;;;;;;;5040719;28;20017;-67
2021/05/09 08:56:57;;;;;;;17.67;10.82;;;;;;;;;;5041680;28;20040;-69
2021/05/09 08:59:23;;;;;;;14.27;12.00;;;;;;;;;;5039837;28;20025;-67
2021/05/09 09:01:49;;;;;;;13.13;10.40;;;;;;;;;;5041078;28;20049;-68
2021/05/09 09:04:15;;;;;;;15.23;10.25;;;;;;;;;;5035030;28;20079;-67
2021/05/09 09:06:43;;;;;;;11.93;10.73;;;;;;;;;;5033074;28;20100;-72
2021/05/09 09:09:25;;;;;;;14.45;12.73;;;;;;;;;;5045166;28;20033;-67
2021/05/09 09:11:53;;;;;;;13.65;12.18;;;;;;;;;;5052705;28;20136;-68
2021/05/09 09:14:25;;;;;;;12.65;11.50;;;;;;;;;;5052371;28;20021;-69
2021/05/09 09:17:08;;;;;;;14.82;11.48;;;;;;;;;;5052009;28;20474;-66
2021/05/09 09:19:34;;;;;;;14.00;12.70;;;;;;;;;;5052337;28;20043;-69
2021/05/09 09:22:00;;;;;;;19.17;12.35;;;;;;;;;;5052101;28;20403;-65
2021/05/09 09:24:27;;;;;;;12.85;9.82;;;;;;;;;;5052141;28;20101;-71
2021/05/09 09:26:53;;;;;;;11.20;10.10;;;;;;;;;;5052081;28;20018;-69
2021/05/09 09:29:24;;;;;;;14.13;10.23;;;;;;;;;;5056504;28;20074;-71
2021/05/09 09:31:52;;;;;;;17.50;10.80;;;;;;;;;;5056245;28;20036;-70
2021/05/09 09:34:18;;;;;;;19.63;9.75;;;;;;;;;;5056054;28;20029;-71
2021/05/09 09:36:44;;;;;;;19.15;11.80;;;;;;;;;;5055704;28;20028;-73
2021/05/09 09:39:10;;;;;;;14.70;11.02;;;;;;;;;;5056303;28;20044;-71
2021/05/09 09:41:51;;;;;;;59.03;34.83;;;;;;;;;;5055878;28;20458;-71
2021/05/09 09:44:17;;;;;;;32.60;20.13;;;;;;;;;;5056598;28;20025;-69
2021/05/09 09:46:49;;;;;;;23.52;15.93;;;;;;;;;;5055712;28;20047;-71
2021/05/09 09:49:20;;;;;;;24.20;16.05;;;;;;;;;;5056484;28;20524;-70
2021/05/09 09:51:48;;;;;;;23.88;15.68;;;;;;;;;;5056028;28;20022;-78
2021/05/09 09:54:29;;;;;;;28.65;16.55;;;;;;;;;;5055786;28;20017;-70
2021/05/09 09:56:55;;;;;;;20.13;13.02;;;;;;;;;;5055689;28;20032;-71
2021/05/09 09:59:22;;;;;;;23.83;16.52;;;;;;;;;;5056061;28;20528;-71
2021/05/09 10:01:48;;;;;;;22.45;14.57;;;;;;;;;;5055813;28;20025;-67
2021/05/09 10:04:14;;;;;;;21.83;12.65;;;;;;;;;;5055346;28;20070;-66
2021/05/09 10:06:40;;;;;;;17.13;13.55;;;;;;;;;;5055356;28;20058;-67
2021/05/09 10:09:07;;;;;;;81.68;16.08;;;;;;;;;;5054869;28;20033;-67
2021/05/09 10:11:33;;;;;;;20.52;12.20;;;;;;;;;;5055608;28;20087;-70
2021/05/09 10:13:59;;;;;;;19.55;12.70;;;;;;;;;;5055542;28;20449;-69
2021/05/09 10:16:26;;;;;;;14.85;11.48;;;;;;;;;;5055661;28;20052;-70
2021/05/09 10:18:53;;;;;;;25.02;11.32;;;;;;;;;;5054691;28;20386;-70
2021/05/09 10:21:26;;;;;;;19.63;12.63;;;;;;;;;;5055017;28;20462;-71
2021/05/09 10:24:12;;;;;;;16.75;11.55;;;;;;;;;;5055544;28;20025;-72
2021/05/09 10:26:47;;;;;;;23.55;12.38;;;;;;;;;;5054863;28;20017;-71
2021/05/09 10:29:37;;;;;;;23.38;11.80;;;;;;;;;;5054836;28;20053;-72
2021/05/09 10:32:07;;;;;;;12.77;10.15;;;;;;;;;;5054190;28;20367;-70
2021/05/09 10:34:56;;;;;;;17.38;10.95;;;;;;;;;;5054944;28;20048;-69
2021/05/09 10:37:44;;;;;;;12.57;9.63;;;;;;;;;;5053804;28;20031;-69
2021/05/09 10:40:27;;;;;;;13.38;9.52;;;;;;;;;;5054013;28;20683;-69
2021/05/09 10:43:15;;;;;;;9.93;8.82;;;;;;;;;;5054697;28;20108;-68
2021/05/09 10:45:53;;;;;;;14.88;10.15;;;;;;;;;;5053996;28;20032;-68
2021/05/09 10:48:32;;;;;;;10.88;9.45;;;;;;;;;;5055189;28;20025;-70
2021/05/09 10:51:17;;;;;;;12.60;9.57;;;;;;;;;;5054756;28;20025;-68
2021/05/09 10:53:43;;;;;;;16.30;10.25;;;;;;;;;;5053185;28;20115;-68
2021/05/09 10:56:30;;;;;;;13.07;11.68;;;;;;;;;;5055073;28;20474;-69
2021/05/09 10:58:57;;;;;;;12.20;11.07;;;;;;;;;;5053239;28;20091;-69
2021/05/09 11:01:25;;;;;;;12.63;11.43;;;;;;;;;;5055018;28;20426;-68
2021/05/09 11:03:56;;;;;;;7.80;5.78;;;;;;;;;;5054670;28;20057;-69
2021/05/09 11:06:41;;;;;;;3.83;3.40;;;;;;;;;;5054110;28;20445;-69
2021/05/09 11:09:12;;;;;;;3.15;2.17;;;;;;;;;;5054482;28;20029;-69
2021/05/09 11:12:00;;;;;;;2.47;1.50;;;;;;;;;;5054044;28;20021;-69
2021/05/09 11:14:26;;;;;;;4.68;2.13;;;;;;;;;;5053367;28;20059;-68
2021/05/09 11:17:07;;;;;;;3.30;2.20;;;;;;;;;;5054397;28;20025;-68
2021/05/09 11:19:34;;;;;;;1.98;1.88;;;;;;;;;;5054594;28;20033;-68
2021/05/09 11:22:00;;;;;;;2.65;1.48;;;;;;;;;;5054201;28;20071;-69
2021/05/09 11:24:27;;;;;;;10.15;1.98;;;;;;;;;;5054077;28;20031;-68
2021/05/09 11:26:54;;;;;;;2.80;2.20;;;;;;;;;;5054140;28;20025;-70
2021/05/09 11:29:20;;;;;;;3.83;1.40;;;;;;;;;;5053746;28;20106;-69
2021/05/09 11:31:49;;;;;;;1.77;1.42;;;;;;;;;;5053962;28;20031;-70
2021/05/09 11:34:16;;;;;;;5.78;4.45;;;;;;;;;;5052557;28;20524;-71
2021/05/09 11:36:42;;;;;;;6.45;5.85;;;;;;;;;;5053764;28;20044;-73
2021/05/09 11:39:12;;;;;;;8.38;5.80;;;;;;;;;;5053832;28;20048;-71
2021/05/09 11:41:54;;;;;;;6.72;5.22;;;;;;;;;;5053896;28;20032;-70
2021/05/09 11:44:20;;;;;;;;;;;;;;;;;;5054960;28;20029;-71
2021/05/09 11:46:46;;;;;;;7.80;6.47;;;;;;;;;;5053444;28;19934;-72
2021/05/09 11:49:14;;;;;;;8.05;7.25;;;;;;;;;;5053077;28;20040;-71
2021/05/09 11:52:00;;;;;;;10.10;7.90;;;;;;;;;;5053655;28;20382;-71
2021/05/09 11:54:28;;;;;;;9.13;8.02;;;;;;;;;;5052840;28;20100;-71
2021/05/09 11:56:56;;;;;;;8.15;7.13;;;;;;;;;;5053318;28;20025;-73
2021/05/09 11:59:43;;;;;;;7.85;7.05;;;;;;;;;;5053347;28;20037;-73
2021/05/09 12:02:25;;;;;;;7.70;6.97;;;;;;;;;;5052769;28;20041;-72
2021/05/09 12:04:53;;;;;;;8.60;7.78;;;;;;;;;;5053042;28;20029;-70
2021/05/09 12:07:20;;;;;;;6.70;6.00;;;;;;;;;;5053355;28;20070;-72
2021/05/09 12:09:50;;;;;;;9.38;6.80;;;;;;;;;;5053580;28;20426;-72
2021/05/09 12:12:18;;;;;;;7.32;6.53;;;;;;;;;;5053323;28;20029;-70
2021/05/09 12:14:44;;;;;;;10.18;6.40;;;;;;;;;;5052398;28;20078;-71
2021/05/09 12:17:18;;;;;;;11.30;7.10;;;;;;;;;;5053110;28;20035;-70
2021/05/09 12:19:44;;;;;;;13.13;6.53;;;;;;;;;;5053281;28;20033;-69
2021/05/09 12:22:12;;;;;;;6.38;5.70;;;;;;;;;;5050020;28;20021;-70
2021/05/09 12:24:45;;;;;;;7.72;6.78;;;;;;;;;;5052290;28;20021;-72
2021/05/09 12:27:11;;;;;;;7.00;6.40;;;;;;;;;;5033817;28;20025;-69
2021/05/09 12:29:53;;;;;;;6.35;5.82;;;;;;;;;;5033874;28;20525;-70
2021/05/09 12:32:20;;;;;;;13.20;6.70;;;;;;;;;;5033271;28;20414;-71
2021/05/09 12:35:06;;;;;;;6.68;6.07;;;;;;;;;;5033039;28;20030;-71
2021/05/09 12:37:34;;;;;;;5.70;5.20;;;;;;;;;;5073107;28;20032;-71
2021/05/09 12:40:20;;;;;;;6.68;6.05;;;;;;;;;;5073063;28;20126;-71
2021/05/09 12:43:04;;;;;;;9.07;5.32;;;;;;;;;;5072145;28;20024;-72
2021/05/09 12:45:31;;;;;;;6.35;5.78;;;;;;;;;;5070812;28;20112;-71
2021/05/09 12:48:03;;;;;;;6.43;5.82;;;;;;;;;;5073457;28;20470;-71
2021/05/09 12:50:49;;;;;;;6.40;5.35;;;;;;;;;;5072901;28;20485;-71
2021/05/09 12:53:15;;;;;;;6.22;5.55;;;;;;;;;;5072451;28;20021;-72
2021/05/09 12:55:41;;;;;;;6.00;5.18;;;;;;;;;;5070940;28;20032;-72
2021/05/09 12:58:09;;;;;;;6.78;5.55;;;;;;;;;;5072720;28;20594;-73
2021/05/09 13:00:35;;;;;;;5.10;4.70;;;;;;;;;;5072555;28;20097;-72
2021/05/09 13:03:01;;;;;;;6.28;5.30;;;;;;;;;;5076585;28;20419;-70
2021/05/09 13:05:27;;;;;;;5.20;4.75;;;;;;;;;;5074639;28;20031;-72
2021/05/09 13:07:53;;;;;;;5.45;4.95;;;;;;;;;;5076721;28;20109;-72
2021/05/09 13:10:21;;;;;;;4.97;4.57;;;;;;;;;;5064913;28;20071;-72
2021/05/09 13:12:51;;;;;;;5.75;3.95;;;;;;;;;;5053184;28;20017;-70
2021/05/09 13:15:17;;;;;;;15.30;4.28;;;;;;;;;;5059605;28;20434;-70
2021/05/09 13:17:43;;;;;;;11.25;3.97;;;;;;;;;;5076655;28;20029;-70
2021/05/09 13:20:10;;;;;;;5.90;3.47;;;;;;;;;;5062472;28;20367;-69
2021/05/09 13:22:36;;;;;;;6.95;3.70;;;;;;;;;;5055616;28;20075;-68
2021/05/09 13:25:02;;;;;;;4.65;3.00;;;;;;;;;;5057389;28;20060;-71
2021/05/09 13:27:29;;;;;;;3.55;3.13;;;;;;;;;;5075672;28;20091;-67
2021/05/09 13:29:55;;;;;;;4.20;3.13;;;;;;;;;;5076507;28;20021;-69
2021/05/09 13:32:21;;;;;;;5.30;3.13;;;;;;;;;;5076136;28;20067;-69
2021/05/09 13:34:47;;;;;;;3.35;3.05;;;;;;;;;;5074579;28;20024;-73
2021/05/09 13:37:13;;;;;;;2.88;2.53;;;;;;;;;;5075684;28;20032;-71
2021/05/09 13:39:39;;;;;;;5.72;2.50;;;;;;;;;;5076027;28;20485;-73
2021/05/09 13:42:05;;;;;;;2.88;2.60;;;;;;;;;;5075783;28;20029;-76
2021/05/09 13:44:31;;;;;;;5.82;2.30;;;;;;;;;;5075981;28;20107;-70
2021/05/09 13:46:57;;;;;;;4.00;2.50;;;;;;;;;;5075666;28;20017;-71
2021/05/09 13:49:23;;;;;;;4.57;2.65;;;;;;;;;;5075887;28;20425;-70
2021/05/09 13:51:49;;;;;;;4.82;2.50;;;;;;;;;;5075891;28;20026;-70
2021/05/09 13:54:15;;;;;;;3.17;2.40;;;;;;;;;;5075674;28;20025;-72
2021/05/09 13:56:43;;;;;;;4.72;2.60;;;;;;;;;;5074130;28;20547;-73
2021/05/09 13:59:09;;;;;;;4.70;3.15;;;;;;;;;;5052936;28;20069;-72
2021/05/09 14:01:35;;;;;;;3.15;2.03;;;;;;;;;;5055864;28;20025;-71
2021/05/09 14:04:01;;;;;;;4.18;2.42;;;;;;;;;;5055628;28;20363;-70
2021/05/09 14:06:27;;;;;;;1.98;1.85;;;;;;;;;;5055623;28;20068;-70
2021/05/09 14:08:54;;;;;;;2.58;2.38;;;;;;;;;;5054942;28;20079;-69
2021/05/09 14:11:20;;;;;;;6.63;2.05;;;;;;;;;;5055402;28;20017;-69
2021/05/09 14:13:47;;;;;;;2.72;1.80;;;;;;;;;;5054578;28;20025;-70
2021/05/09 14:16:15;;;;;;;4.97;1.90;;;;;;;;;;5055381;28;20025;-70
2021/05/09 14:18:41;;;;;;;4.97;2.28;;;;;;;;;;5055677;28;20070;-71
2021/05/09 14:21:07;;;;;;;2.38;2.03;;;;;;;;;;5055655;28;20028;-71
2021/05/09 14:23:33;;;;;;;5.40;2.47;;;;;;;;;;5055014;28;20102;-71
2021/05/09 14:25:59;;;;;;;5.07;3.33;;;;;;;;;;5055155;28;20029;-73
2021/05/09 14:28:25;;;;;;;5.00;4.28;;;;;;;;;;5055194;28;20514;-73
2021/05/09 14:30:51;;;;;;;7.13;5.13;;;;;;;;;;5055081;28;20119;-71